Time;durP1;ratioP1;P1;durP2;ratioP2;P2;SDS_P1;SDS_P2;PMS_P1;PMS_P2;Temp;Humidity;BMP_temperature;BMP_pressure;BME280_temperature;BME280_humidity;BME280_pressure;Samples;Min_cycle;Max_cycle;Signal;HPM_P1;HPM_P2
2023/05/22 00:02:07;;;;;;;18.07;16.17;;;17.60;96.90;;;;;;5070999;28;20555;-62
2023/05/22 00:04:34;;;;;;;19.53;16.70;;;17.50;96.90;;;;;;5068951;28;20724;-62
2023/05/22 00:07:01;;;;;;;18.10;15.73;;;17.50;97.30;;;;;;5068590;28;20490;-62
2023/05/22 00:09:29;;;;;;;24.07;17.00;;;17.40;97.00;;;;;;5051176;27;20493;-62
2023/05/22 00:11:56;;;;;;;28.03;16.47;;;17.40;97.00;;;;;;5096848;27;20479;-62
2023/05/22 00:14:23;;;;;;;18.27;16.47;;;17.30;97.40;;;;;;5074432;27;20469;-61
2023/05/22 00:16:49;;;;;;;22.10;16.77;;;17.10;97.50;;;;;;5075413;27;20810;-62
2023/05/22 00:19:17;;;;;;;25.53;18.80;;;17.10;97.70;;;;;;5099226;27;20764;-62
2023/05/22 00:21:44;;;;;;;20.23;17.03;;;17.00;97.90;;;;;;5073282;27;20537;-62
2023/05/22 00:24:10;;;;;;;20.53;17.80;;;17.00;98.30;;;;;;5082972;27;20886;-62
2023/05/22 00:26:38;;;;;;;21.07;16.97;;;16.90;97.90;;;;;;5074225;27;20469;-62
2023/05/22 00:29:05;;;;;;;20.80;18.03;;;16.90;98.10;;;;;;5067141;27;20578;-62
2023/05/22 00:31:32;;;;;;;25.63;19.87;;;16.80;98.40;;;;;;5068724;28;20486;-62
2023/05/22 00:33:59;;;;;;;26.97;20.30;;;16.60;98.80;;;;;;5067746;28;20482;-61
2023/05/22 00:36:26;;;;;;;24.17;19.20;;;16.20;99.60;;;;;;5049964;28;20471;-61
2023/05/22 00:38:53;;;;;;;23.33;19.50;;;16.10;99.90;;;;;;5064370;28;20491;-61
2023/05/22 00:41:21;;;;;;;31.10;19.03;;;16.00;99.90;;;;;;5081021;27;20798;-62
2023/05/22 00:43:49;;;;;;;25.57;20.03;;;15.90;99.90;;;;;;5075283;27;20477;-61
2023/05/22 00:46:20;;;;;;;31.37;19.83;;;15.90;99.90;;;;;;5077213;28;20490;-62
2023/05/22 00:48:47;;;;;;;22.80;17.90;;;16.00;99.90;;;;;;5067009;28;20990;-62
2023/05/22 00:51:14;;;;;;;19.20;15.93;;;16.10;99.90;;;;;;5067657;28;20470;-62
2023/05/22 00:53:41;;;;;;;20.13;16.17;;;16.20;99.90;;;;;;5088176;27;20468;-62
2023/05/22 00:56:09;;;;;;;26.80;18.20;;;16.30;99.40;;;;;;5067412;28;20501;-62
2023/05/22 00:58:36;;;;;;;19.90;17.00;;;16.30;98.80;;;;;;5071189;28;20872;-62
2023/05/22 01:01:06;;;;;;;21.80;18.30;;;16.40;98.00;;;;;;5068746;28;21852;-62
2023/05/22 01:03:33;;;;;;;19.87;16.37;;;16.40;98.30;;;;;;5068372;28;20591;-62
2023/05/22 01:06:00;;;;;;;20.20;17.43;;;16.40;98.20;;;;;;5067881;28;20801;-62
2023/05/22 01:08:27;;;;;;;20.90;17.40;;;16.50;97.90;;;;;;5052834;27;20691;-62
2023/05/22 01:11:01;;;;;;;25.07;19.03;;;16.40;97.90;;;;;;5060211;27;21005;-61
2023/05/22 01:13:34;;;;;;;23.07;17.70;;;16.40;98.10;;;;;;5087643;27;20694;-62
2023/05/22 01:16:10;;;;;;;21.50;18.10;;;16.40;98.20;;;;;;5066822;28;20494;-61
2023/05/22 01:18:53;;;;;;;21.50;17.53;;;16.40;98.20;;;;;;5066740;27;20476;-62
2023/05/22 01:21:29;;;;;;;20.50;16.53;;;17.20;98.30;;;;;;5066499;27;20481;-61
2023/05/22 01:24:28;;;;;;;24.20;18.00;;;16.30;98.10;;;;;;5089089;27;20478;-62
2023/05/22 01:27:44;;;;;;;22.60;17.80;;;16.30;98.00;;;;;;5055031;28;20998;-61
2023/05/22 01:30:50;;;;;;;20.30;17.70;;;16.30;97.50;;;;;;5026348;27;20571;-62
2023/05/22 01:33:20;;;;;;;23.47;16.93;;;16.30;97.80;;;;;;5063474;28;20717;-62
2023/05/22 01:35:52;;;;;;;22.30;17.63;;;16.20;97.60;;;;;;5071096;28;20988;-62
2023/05/22 01:38:20;;;;;;;23.70;17.23;;;16.10;97.60;;;;;;5084642;27;20468;-62
2023/05/22 01:40:48;;;;;;;21.50;15.83;;;16.10;97.80;;;;;;5081102;27;21041;-62
2023/05/22 01:43:15;;;;;;;21.10;17.70;;;15.70;97.50;;;;;;5073434;28;20485;-61
2023/05/22 01:45:42;;;;;;;26.50;16.57;;;16.00;98.00;;;;;;5080445;28;20487;-62
2023/05/22 01:48:10;;;;;;;20.70;16.70;;;15.80;98.30;;;;;;5070587;28;20502;-62
2023/05/22 01:50:39;;;;;;;20.50;16.97;;;15.70;98.40;;;;;;5074300;27;20492;-63
2023/05/22 01:53:12;;;;;;;21.20;16.80;;;15.80;98.20;;;;;;5086286;27;20469;-62
2023/05/22 01:55:46;;;;;;;23.00;18.53;;;15.80;98.00;;;;;;5049450;28;20477;-62
2023/05/22 01:58:21;;;;;;;21.67;16.70;;;15.70;98.20;;;;;;5081255;27;20877;-62
2023/05/22 02:00:50;;;;;;;23.50;17.67;;;15.70;98.30;;;;;;5069306;27;20467;-62
2023/05/22 02:03:19;;;;;;;21.10;17.70;;;15.50;98.80;;;;;;5092178;27;20771;-62
2023/05/22 02:05:53;;;;;;;22.80;18.47;;;15.30;99.00;;;;;;5075804;28;20478;-62
2023/05/22 02:08:20;;;;;;;22.70;18.63;;;15.30;99.40;;;;;;5073405;27;20491;-62
2023/05/22 02:10:50;;;;;;;23.03;17.73;;;15.30;99.60;;;;;;5095067;27;20551;-62
2023/05/22 02:13:17;;;;;;;22.73;18.10;;;15.20;98.80;;;;;;5091640;27;20521;-62
2023/05/22 02:15:45;;;;;;;21.73;18.60;;;15.20;99.10;;;;;;5084163;28;21049;-62
2023/05/22 02:18:12;;;;;;;28.07;20.33;;;15.10;99.30;;;;;;5084194;28;20489;-61
2023/05/22 02:20:40;;;;;;;25.20;18.30;;;15.20;99.20;;;;;;5080648;28;20484;-62
2023/05/22 02:23:08;;;;;;;22.17;19.53;;;15.30;98.60;;;;;;5081526;28;20485;-62
2023/05/22 02:25:36;;;;;;;23.93;18.50;;;15.30;98.60;;;;;;5062772;28;21124;-62
2023/05/22 02:28:03;;;;;;;21.70;17.37;;;15.30;98.40;;;;;;5077273;27;20489;-62
2023/05/22 02:30:29;;;;;;;21.40;17.87;;;15.40;98.50;;;;;;5097816;27;20484;-62
2023/05/22 02:32:58;;;;;;;23.80;17.93;;;15.40;98.20;;;;;;5086341;27;21179;-61
2023/05/22 02:35:28;;;;;;;25.77;17.30;;;15.40;98.50;;;;;;5079158;27;20482;-61
2023/05/22 02:37:55;;;;;;;21.00;16.23;;;15.40;98.60;;;;;;5077168;28;20480;-61
2023/05/22 02:40:23;;;;;;;28.30;19.03;;;15.30;98.90;;;;;;5078165;27;20476;-61
2023/05/22 02:42:50;;;;;;;21.57;17.13;;;15.20;99.20;;;;;;5087596;27;20485;-61
2023/05/22 02:45:17;;;;;;;25.83;19.53;;;15.10;99.70;;;;;;5104955;27;20508;-61
2023/05/22 02:47:44;;;;;;;22.07;16.63;;;15.00;99.90;;;;;;5091367;27;20470;-61
2023/05/22 02:50:11;;;;;;;22.13;17.37;;;14.90;98.90;;;;;;5109667;27;20974;-61
2023/05/22 02:52:38;;;;;;;20.70;17.00;;;14.90;99.00;;;;;;5083105;28;20489;-62
2023/05/22 02:55:07;;;;;;;23.27;18.13;;;14.90;98.80;;;;;;5073097;28;20491;-62
2023/05/22 02:57:35;;;;;;;22.43;16.10;;;14.90;98.80;;;;;;5076188;28;20475;-61
2023/05/22 03:00:03;;;;;;;21.57;18.17;;;14.70;98.90;;;;;;5080183;27;20485;-62
2023/05/22 03:02:31;;;;;;;29.23;16.87;;;14.60;99.60;;;;;;5086674;27;20516;-61
2023/05/22 03:04:58;;;;;;;21.00;16.77;;;14.70;99.60;;;;;;5093001;27;20528;-61
2023/05/22 03:07:28;;;;;;;23.03;19.00;;;14.70;99.50;;;;;;5075352;27;20486;-62
2023/05/22 03:09:55;;;;;;;24.37;17.60;;;14.80;99.80;;;;;;5099181;27;20793;-61
2023/05/22 03:12:21;;;;;;;21.27;17.90;;;14.70;99.90;;;;;;5074286;27;21022;-61
2023/05/22 03:14:50;;;;;;;23.43;17.30;;;14.50;99.90;;;;;;5076332;28;20481;-61
2023/05/22 03:17:17;;;;;;;27.50;17.27;;;14.10;99.90;;;;;;5076586;28;20927;-62
2023/05/22 03:19:43;;;;;;;23.13;17.70;;;14.10;99.90;;;;;;5070240;27;20491;-61
2023/05/22 03:22:10;;;;;;;24.90;19.57;;;13.90;99.90;;;;;;5069582;27;21028;-61
2023/05/22 03:24:37;;;;;;;26.33;19.50;;;13.80;99.90;;;;;;5078730;27;20495;-61
2023/05/22 03:27:04;;;;;;;26.57;21.27;;;13.90;99.90;;;;;;5079789;28;20489;-61
2023/05/22 03:29:31;;;;;;;30.60;22.60;;;13.90;99.90;;;;;;5083871;27;20488;-61
2023/05/22 03:31:59;;;;;;;30.33;24.20;;;14.00;99.90;;;;;;5102331;27;20493;-61
2023/05/22 03:34:26;;;;;;;33.20;24.57;;;14.20;99.90;;;;;;5099761;27;20487;-61
2023/05/22 03:36:53;;;;;;;25.53;19.97;;;14.30;99.90;;;;;;5084323;27;20535;-61
2023/05/22 03:39:20;;;;;;;28.17;18.10;;;14.50;99.90;;;;;;5083091;27;20487;-61
2023/05/22 03:41:46;;;;;;;21.83;17.50;;;14.50;99.90;;;;;;5078533;27;20492;-61
2023/05/22 03:44:13;;;;;;;21.10;16.73;;;14.60;99.90;;;;;;5087712;27;20484;-61
2023/05/22 03:46:40;;;;;;;22.93;17.60;;;14.70;99.90;;;;;;5078512;27;20519;-61
2023/05/22 03:49:08;;;;;;;24.57;19.07;;;14.70;99.90;;;;;;5090834;27;20525;-60
2023/05/22 03:51:35;;;;;;;28.90;20.30;;;14.80;99.90;;;;;;5061843;27;21001;-61
2023/05/22 03:54:02;;;;;;;29.93;20.40;;;14.90;99.90;;;;;;5083022;27;20478;-61
2023/05/22 03:56:29;;;;;;;23.40;18.60;;;14.90;99.90;;;;;;5062957;28;20465;-61
2023/05/22 03:58:55;;;;;;;24.93;19.20;;;15.00;99.90;;;;;;5091181;27;20496;-61
2023/05/22 04:01:23;;;;;;;25.03;16.97;;;15.00;99.90;;;;;;5061464;27;20476;-61
2023/05/22 04:03:50;;;;;;;24.67;18.67;;;15.00;99.90;;;;;;5069045;27;20573;-61
2023/05/22 04:06:20;;;;;;;22.47;17.87;;;15.00;99.90;;;;;;5078343;28;21002;-62
2023/05/22 04:08:47;;;;;;;23.80;16.97;;;15.00;99.90;;;;;;5064319;28;21017;-62
2023/05/22 04:11:14;;;;;;;23.40;18.80;;;15.00;99.90;;;;;;5073898;27;20469;-62
2023/05/22 04:13:41;;;;;;;22.87;19.27;;;15.00;99.90;;;;;;5068113;27;20995;-63
2023/05/22 04:16:08;;;;;;;30.87;18.57;;;14.90;99.90;;;;;;5070814;28;20499;-62
2023/05/22 04:18:35;;;;;;;23.37;17.63;;;14.90;99.90;;;;;;5073170;28;20482;-61
2023/05/22 04:21:02;;;;;;;26.10;19.80;;;14.90;99.90;;;;;;5057883;28;20943;-61
2023/05/22 04:23:30;;;;;;;23.57;18.97;;;14.80;99.90;;;;;;5083770;27;20569;-60
2023/05/22 04:26:01;;;;;;;26.33;19.67;;;14.80;99.90;;;;;;5053005;28;20493;-61
2023/05/22 04:28:29;;;;;;;25.03;17.50;;;14.90;99.90;;;;;;5066076;27;20485;-61
2023/05/22 04:30:56;;;;;;;25.10;19.80;;;14.90;99.90;;;;;;5085862;27;25169;-60
2023/05/22 04:33:23;;;;;;;29.20;20.33;;;14.80;99.90;;;;;;5078946;28;20573;-60
2023/05/22 04:35:50;;;;;;;31.30;20.17;;;14.70;99.90;;;;;;5075118;28;20806;-60
2023/05/22 04:38:17;;;;;;;30.20;20.90;;;14.60;99.90;;;;;;5066101;28;20470;-60
2023/05/22 04:40:46;;;;;;;29.60;21.73;;;14.50;99.90;;;;;;5073111;28;20482;-60
2023/05/22 04:43:13;;;;;;;30.27;22.40;;;14.70;99.90;;;;;;5078242;28;20872;-61
2023/05/22 04:45:41;;;;;;;29.93;20.97;;;14.70;99.90;;;;;;5071456;28;20473;-61
2023/05/22 04:48:07;;;;;;;21.83;19.40;;;14.90;99.90;;;;;;5081211;28;20474;-60
2023/05/22 04:50:34;;;;;;;28.43;21.13;;;15.00;99.90;;;;;;5056111;28;20840;-61
2023/05/22 04:53:02;;;;;;;24.27;19.27;;;15.10;99.90;;;;;;5056013;28;20512;-61
2023/05/22 04:55:32;;;;;;;21.10;17.40;;;15.20;99.90;;;;;;5079795;28;20482;-60
2023/05/22 04:58:01;;;;;;;23.90;20.27;;;15.40;99.90;;;;;;5071714;28;20965;-60
2023/05/22 05:00:28;;;;;;;24.93;18.80;;;15.50;99.90;;;;;;5097650;27;21029;-60
2023/05/22 05:02:56;;;;;;;27.43;19.90;;;15.50;99.90;;;;;;5075744;27;20481;-60
2023/05/22 05:05:23;;;;;;;27.13;20.37;;;15.60;99.90;;;;;;5078628;28;20474;-60
2023/05/22 05:07:50;;;;;;;29.63;20.97;;;15.60;99.90;;;;;;5050148;28;20542;-60
2023/05/22 05:10:17;;;;;;;27.50;20.63;;;15.70;99.90;;;;;;5067826;27;21028;-61
2023/05/22 05:12:44;;;;;;;26.10;20.97;;;15.80;99.90;;;;;;5109199;27;21005;-62
2023/05/22 05:15:12;;;;;;;27.63;21.20;;;15.90;99.90;;;;;;5081524;28;20490;-61
2023/05/22 05:17:39;;;;;;;27.00;20.13;;;15.90;99.90;;;;;;5090113;27;20492;-63
2023/05/22 05:20:07;;;;;;;23.47;18.80;;;16.10;99.90;;;;;;5082365;27;20497;-61
2023/05/22 05:22:34;;;;;;;31.30;22.20;;;16.20;99.90;;;;;;5052216;28;20486;-61
2023/05/22 05:25:02;;;;;;;31.97;21.70;;;16.30;99.90;;;;;;5080962;28;20478;-61
2023/05/22 05:27:29;;;;;;;26.87;21.50;;;16.40;99.90;;;;;;5057079;27;20478;-61
2023/05/22 05:29:56;;;;;;;27.23;21.43;;;16.50;99.90;;;;;;5086543;27;21224;-61
2023/05/22 05:32:24;;;;;;;26.80;20.70;;;16.70;99.90;;;;;;5071747;28;20476;-61
2023/05/22 05:34:51;;;;;;;27.10;20.80;;;16.70;99.90;;;;;;5085085;27;20890;-61
2023/05/22 05:37:18;;;;;;;29.77;21.67;;;16.90;99.90;;;;;;5076618;28;20479;-61
2023/05/22 05:39:45;;;;;;;27.03;22.20;;;16.90;99.90;;;;;;5080389;27;20482;-60
2023/05/22 05:42:11;;;;;;;30.57;22.97;;;17.00;99.90;;;;;;5086160;27;20494;-61
2023/05/22 05:44:38;;;;;;;34.43;21.30;;;17.20;99.90;;;;;;5097058;28;20485;-61
2023/05/22 05:47:05;;;;;;;31.27;25.10;;;17.20;99.90;;;;;;5080018;28;21021;-61
2023/05/22 05:49:34;;;;;;;32.20;22.37;;;17.30;99.90;;;;;;5085281;28;21069;-61
2023/05/22 05:52:00;;;;;;;28.80;23.50;;;17.40;99.90;;;;;;5075628;28;20482;-61
2023/05/22 05:54:27;;;;;;;31.23;22.73;;;17.40;99.90;;;;;;5056664;28;20548;-61
2023/05/22 05:56:54;;;;;;;29.90;23.47;;;17.60;99.90;;;;;;5086799;28;20489;-61
2023/05/22 05:59:21;;;;;;;28.83;23.73;;;17.70;99.90;;;;;;5069831;28;21025;-61
2023/05/22 06:01:49;;;;;;;27.17;22.27;;;17.90;99.90;;;;;;5080177;28;20474;-61
2023/05/22 06:04:16;;;;;;;31.57;22.87;;;18.00;99.90;;;;;;5085923;28;20482;-61
2023/05/22 06:06:44;;;;;;;27.57;21.80;;;18.00;99.90;;;;;;5077136;28;20471;-61
2023/05/22 06:09:11;;;;;;;29.60;23.73;;;18.20;99.90;;;;;;5057706;28;20482;-61
2023/05/22 06:11:38;;;;;;;29.63;23.33;;;18.30;99.90;;;;;;5060381;27;20575;-61
2023/05/22 06:14:07;;;;;;;36.03;22.70;;;18.70;99.90;;;;;;5112840;27;21181;-61
2023/05/22 06:16:34;;;;;;;35.43;24.60;;;18.80;99.90;;;;;;5069379;28;20514;-61
2023/05/22 06:19:01;;;;;;;28.83;25.33;;;18.80;99.90;;;;;;5059315;28;20821;-61
2023/05/22 06:21:28;;;;;;;31.13;27.00;;;18.90;99.90;;;;;;5075118;28;20478;-62
2023/05/22 06:23:56;;;;;;;35.33;26.20;;;18.90;99.90;;;;;;5070392;28;21018;-62
2023/05/22 06:26:24;;;;;;;36.07;27.60;;;19.20;99.90;;;;;;5093032;27;20478;-62
2023/05/22 06:28:52;;;;;;;32.30;25.27;;;19.40;99.90;;;;;;5076886;28;20865;-62
2023/05/22 06:31:19;;;;;;;28.93;24.83;;;19.60;99.90;;;;;;5102259;27;20982;-62
2023/05/22 06:33:46;;;;;;;31.20;24.83;;;19.70;99.90;;;;;;5076353;28;20587;-62
2023/05/22 06:36:13;;;;;;;32.23;26.23;;;20.10;99.90;;;;;;5059463;28;20494;-61
2023/05/22 06:38:40;;;;;;;31.87;26.00;;;20.10;99.90;;;;;;5068151;28;20479;-62
2023/05/22 06:41:08;;;;;;;32.63;23.93;;;20.30;99.90;;;;;;5086156;27;20470;-61
2023/05/22 06:43:35;;;;;;;31.57;25.03;;;20.50;99.90;;;;;;5091988;27;20473;-62
2023/05/22 06:46:02;;;;;;;30.83;25.10;;;20.70;99.90;;;;;;5090893;27;20546;-62
2023/05/22 06:48:28;;;;;;;32.00;26.40;;;20.80;99.90;;;;;;5102739;27;20538;-62
2023/05/22 06:50:55;;;;;;;30.93;25.60;;;20.90;99.90;;;;;;5076445;28;21011;-62
2023/05/22 06:53:24;;;;;;;29.27;24.37;;;21.10;99.90;;;;;;5060731;28;20532;-62
2023/05/22 06:55:51;;;;;;;27.93;24.93;;;21.10;99.90;;;;;;5089846;27;20985;-62
2023/05/22 06:58:19;;;;;;;33.83;27.33;;;21.20;99.90;;;;;;5089173;27;20524;-62
2023/05/22 07:00:46;;;;;;;27.20;23.70;;;21.30;99.90;;;;;;5076572;28;20492;-62
2023/05/22 07:03:13;;;;;;;29.20;23.37;;;21.50;99.90;;;;;;5066570;28;20483;-62
2023/05/22 07:05:40;;;;;;;28.57;24.33;;;21.90;99.90;;;;;;5081022;28;20477;-62
2023/05/22 07:08:08;;;;;;;31.53;24.40;;;22.30;99.90;;;;;;5073927;27;20842;-62
2023/05/22 07:10:35;;;;;;;27.47;22.70;;;22.60;99.90;;;;;;5118415;27;20844;-62
2023/05/22 07:13:01;;;;;;;35.83;22.20;;;23.30;99.90;;;;;;5069176;28;21830;-63
2023/05/22 07:15:30;;;;;;;24.90;22.00;;;23.30;99.90;;;;;;5095859;27;20491;-62
2023/05/22 07:17:56;;;;;;;23.00;20.60;;;23.70;99.60;;;;;;5082041;27;20487;-62
2023/05/22 07:20:25;;;;;;;31.10;25.00;;;23.80;99.00;;;;;;5082369;27;21187;-62
2023/05/22 07:22:51;;;;;;;25.50;22.30;;;24.00;99.40;;;;;;5101103;27;20843;-63
2023/05/22 07:25:18;;;;;;;26.20;21.77;;;24.40;98.20;;;;;;5073780;27;20473;-63
2023/05/22 07:27:45;;;;;;;28.40;22.00;;;24.50;98.50;;;;;;5091556;27;20851;-62
2023/05/22 07:30:13;;;;;;;26.03;22.03;;;24.70;98.80;;;;;;5086720;27;20482;-63
2023/05/22 07:32:41;;;;;;;28.30;22.50;;;24.90;98.20;;;;;;5064932;28;20478;-63
2023/05/22 07:35:10;;;;;;;28.13;24.17;;;25.10;97.40;;;;;;5072505;28;20671;-63
2023/05/22 07:37:37;;;;;;;25.87;22.70;;;25.30;97.50;;;;;;5074681;27;20479;-63
2023/05/22 07:40:06;;;;;;;27.50;24.60;;;24.90;96.50;;;;;;5088510;27;20470;-64
2023/05/22 07:42:33;;;;;;;25.87;21.80;;;24.90;97.90;;;;;;5090617;27;20482;-63
2023/05/22 07:45:01;;;;;;;25.67;22.57;;;24.80;96.70;;;;;;5095729;27;20474;-61
2023/05/22 07:47:27;;;;;;;29.53;21.83;;;24.70;97.10;;;;;;5082820;28;20471;-63
2023/05/22 07:49:56;;;;;;;24.30;21.70;;;24.70;97.90;;;;;;5075645;27;20489;-63
2023/05/22 07:52:23;;;;;;;24.93;21.80;;;25.00;97.80;;;;;;5074324;28;20474;-63
2023/05/22 07:54:49;;;;;;;23.30;20.80;;;25.30;97.30;;;;;;5049784;28;20557;-63
2023/05/22 07:57:16;;;;;;;33.50;21.57;;;25.00;96.50;;;;;;5089155;28;20482;-64
2023/05/22 07:59:44;;;;;;;23.87;21.40;;;24.90;97.40;;;;;;5043940;28;20487;-64
2023/05/22 08:02:11;;;;;;;25.23;22.20;;;24.70;96.10;;;;;;5085557;27;20459;-64
2023/05/22 08:04:38;;;;;;;24.63;21.80;;;24.50;96.40;;;;;;5100921;27;20490;-64
2023/05/22 08:07:06;;;;;;;37.47;20.80;;;24.40;96.90;;;;;;5071643;28;20982;-63
2023/05/22 08:09:33;;;;;;;22.20;19.87;;;24.00;95.90;;;;;;5062140;28;21380;-63
2023/05/22 08:12:00;;;;;;;25.97;21.10;;;24.10;96.30;;;;;;5085368;27;20505;-63
2023/05/22 08:14:27;;;;;;;23.63;21.17;;;24.20;97.10;;;;;;5060685;27;20442;-63
2023/05/22 08:16:53;;;;;;;26.67;22.67;;;24.10;96.20;;;;;;5105153;27;20974;-63
2023/05/22 08:19:20;;;;;;;27.53;21.60;;;24.30;95.90;;;;;;5093012;27;20466;-63
2023/05/22 08:21:47;;;;;;;28.13;22.70;;;24.30;96.20;;;;;;5085131;27;20473;-63
2023/05/22 08:24:15;;;;;;;25.77;22.20;;;24.30;95.70;;;;;;5068034;28;20449;-63
2023/05/22 08:26:42;;;;;;;29.47;22.17;;;24.40;96.20;;;;;;5093945;27;21119;-64
2023/05/22 08:29:09;;;;;;;24.17;21.57;;;24.40;97.10;;;;;;5110373;27;20935;-63
2023/05/22 08:31:36;;;;;;;24.33;21.83;;;24.60;97.50;;;;;;5073822;28;20825;-63
2023/05/22 08:34:05;;;;;;;22.27;19.90;;;24.80;96.70;;;;;;5077972;27;20474;-63
2023/05/22 08:36:32;;;;;;;23.60;19.97;;;24.80;96.80;;;;;;5092598;27;20894;-63
2023/05/22 08:39:00;;;;;;;23.00;20.60;;;24.80;96.10;;;;;;5086828;27;21073;-63
2023/05/22 08:41:29;;;;;;;22.70;20.40;;;25.00;96.00;;;;;;5074318;28;20536;-63
2023/05/22 08:43:56;;;;;;;22.53;20.17;;;24.90;95.90;;;;;;5072878;28;20810;-63
2023/05/22 08:46:27;;;;;;;22.67;20.20;;;25.10;96.20;;;;;;5079704;28;20460;-64
2023/05/22 08:48:57;;;;;;;22.53;20.13;;;25.30;96.10;;;;;;5060063;28;20519;-64
2023/05/22 08:51:30;;;;;;;22.80;20.30;;;25.70;95.80;;;;;;5071473;28;20979;-63
2023/05/22 08:53:57;;;;;;;25.30;20.67;;;26.10;95.70;;;;;;5059611;28;20495;-63
2023/05/22 08:56:24;;;;;;;24.07;18.90;;;26.30;95.70;;;;;;5077367;27;20489;-64
2023/05/22 08:58:53;;;;;;;23.47;20.73;;;26.30;94.80;;;;;;5070326;27;20877;-63
2023/05/22 09:01:20;;;;;;;23.33;20.97;;;26.40;95.50;;;;;;5085020;27;20487;-63
2023/05/22 09:03:50;;;;;;;27.13;22.57;;;26.40;95.60;;;;;;5071535;28;20467;-63
2023/05/22 09:06:17;;;;;;;22.73;20.60;;;26.70;95.10;;;;;;5075640;28;20483;-64
2023/05/22 09:08:44;;;;;;;22.30;19.23;;;26.70;94.60;;;;;;5077427;27;20470;-63
2023/05/22 09:11:12;;;;;;;22.73;20.33;;;26.60;93.00;;;;;;5078369;27;20463;-64
2023/05/22 09:13:40;;;;;;;21.77;19.47;;;26.70;95.10;;;;;;5090444;27;20512;-63
2023/05/22 09:16:10;;;;;;;22.03;18.67;;;26.80;94.90;;;;;;5065422;27;20991;-63
2023/05/22 09:18:38;;;;;;;22.30;19.43;;;26.80;93.70;;;;;;5076708;27;20810;-63
2023/05/22 09:21:06;;;;;;;20.60;18.50;;;26.80;94.90;;;;;;5061592;28;20461;-64
2023/05/22 09:23:33;;;;;;;23.47;20.63;;;26.80;94.80;;;;;;5057783;27;20455;-63
2023/05/22 09:26:02;;;;;;;20.87;18.87;;;27.00;94.30;;;;;;5103896;27;20847;-64
2023/05/22 09:28:33;;;;;;;21.37;19.23;;;27.30;94.20;;;;;;5064488;28;20477;-63
2023/05/22 09:31:00;;;;;;;22.53;18.73;;;27.60;95.20;;;;;;5066329;28;20495;-63
2023/05/22 09:33:31;;;;;;;20.93;18.73;;;27.90;94.70;;;;;;5103028;27;20864;-64
2023/05/22 09:35:59;;;;;;;23.83;20.27;;;27.80;93.10;;;;;;5050276;27;20551;-64
2023/05/22 09:38:27;;;;;;;20.83;18.73;;;28.30;93.60;;;;;;5101608;28;20732;-64
2023/05/22 09:40:55;;;;;;;21.73;19.00;;;28.50;93.20;;;;;;5091795;28;20455;-64
2023/05/22 09:43:24;;;;;;;21.93;19.60;;;28.60;93.80;;;;;;5042261;28;20539;-64
2023/05/22 09:45:57;;;;;;;23.93;20.33;;;28.20;91.10;;;;;;5083501;27;20467;-64
2023/05/22 09:48:24;;;;;;;22.33;20.07;;;28.20;91.30;;;;;;5097804;27;20457;-64
2023/05/22 09:50:54;;;;;;;21.10;18.53;;;27.90;92.60;;;;;;5091565;27;20529;-64
2023/05/22 09:53:27;;;;;;;25.53;19.00;;;27.40;92.70;;;;;;5079874;28;20466;-64
2023/05/22 09:55:56;;;;;;;20.37;18.37;;;27.00;92.70;;;;;;5074009;28;20466;-64
2023/05/22 09:58:25;;;;;;;23.33;19.73;;;26.90;93.00;;;;;;5062933;28;20545;-64
2023/05/22 10:00:55;;;;;;;20.73;18.80;;;26.80;93.30;;;;;;5064914;28;20467;-64
2023/05/22 10:03:25;;;;;;;22.80;20.70;;;26.70;93.90;;;;;;5051964;28;20575;-64
2023/05/22 10:05:56;;;;;;;22.50;19.77;;;26.60;93.60;;;;;;5077412;27;20549;-64
2023/05/22 10:08:26;;;;;;;22.90;20.50;;;26.50;93.50;;;;;;5063216;28;21024;-63
2023/05/22 10:10:53;;;;;;;20.33;18.33;;;26.50;93.40;;;;;;5073085;27;20454;-64
2023/05/22 10:13:20;;;;;;;22.40;20.10;;;26.70;94.60;;;;;;5066804;27;20476;-65
2023/05/22 10:15:48;;;;;;;24.13;21.70;;;26.60;94.90;;;;;;5082804;27;20540;-65
2023/05/22 10:18:16;;;;;;;23.50;20.77;;;26.40;96.30;;;;;;5061083;28;20487;-65
2023/05/22 10:20:43;;;;;;;23.00;20.60;;;26.10;94.60;;;;;;5084753;27;20451;-64
2023/05/22 10:23:13;;;;;;;25.83;22.43;;;25.90;95.50;;;;;;5059515;27;20518;-64
2023/05/22 10:25:41;;;;;;;23.17;20.97;;;26.10;97.10;;;;;;5075879;27;20472;-64
2023/05/22 10:28:09;;;;;;;26.57;23.83;;;25.70;97.10;;;;;;5061227;27;20989;-64
2023/05/22 10:30:43;;;;;;;23.77;21.23;;;25.70;96.90;;;;;;5091772;27;20457;-64
2023/05/22 10:33:15;;;;;;;22.87;20.40;;;25.80;97.00;;;;;;5067616;27;20471;-64
2023/05/22 10:35:47;;;;;;;23.87;21.43;;;25.90;96.60;;;;;;5087304;27;20495;-65
2023/05/22 10:38:49;;;;;;;22.03;19.73;;;25.90;95.40;;;;;;5084696;27;20467;-65
2023/05/22 10:41:18;;;;;;;24.13;21.57;;;26.00;95.50;;;;;;5051915;28;20958;-65
2023/05/22 10:43:49;;;;;;;23.47;21.10;;;26.00;95.00;;;;;;5060422;27;20992;-65
2023/05/22 10:46:15;;;;;;;24.03;21.47;;;26.00;96.00;;;;;;5095057;27;20462;-65
2023/05/22 10:48:45;;;;;;;26.07;22.20;;;25.80;95.70;;;;;;5071630;27;20459;-66
2023/05/22 10:51:12;;;;;;;24.47;22.07;;;25.80;96.50;;;;;;5071905;27;20877;-64
2023/05/22 10:53:44;;;;;;;26.37;21.60;;;25.70;97.40;;;;;;5060273;27;20817;-64
2023/05/22 10:56:12;;;;;;;29.17;23.23;;;25.70;97.10;;;;;;5078508;27;20486;-64
2023/05/22 10:58:39;;;;;;;26.63;23.93;;;25.00;96.90;;;;;;5086127;27;21052;-64
2023/05/22 11:01:12;;;;;;;26.73;24.13;;;25.40;97.90;;;;;;5093535;27;20775;-64
2023/05/22 11:03:52;;;;;;;25.70;22.97;;;25.40;97.80;;;;;;5064699;27;20560;-64
2023/05/22 11:06:33;;;;;;;27.17;23.40;;;25.40;97.70;;;;;;5075980;27;20751;-63
2023/05/22 11:09:20;;;;;;;30.70;25.90;;;25.60;98.80;;;;;;5067025;27;20470;-64
2023/05/22 11:12:20;;;;;;;23.43;20.90;;;25.60;97.60;;;;;;5078257;28;20447;-64
2023/05/22 11:14:55;;;;;;;26.80;24.00;;;25.50;97.40;;;;;;5068805;27;20482;-63
2023/05/22 11:17:23;;;;;;;25.23;22.60;;;25.50;97.40;;;;;;5088749;27;20451;-64
2023/05/22 11:20:01;;;;;;;26.57;23.87;;;25.60;97.90;;;;;;5081388;27;20709;-64
2023/05/22 11:22:36;;;;;;;26.90;21.80;;;25.70;98.30;;;;;;5084969;27;20553;-63
2023/05/22 11:25:09;;;;;;;28.07;24.47;;;26.00;97.30;;;;;;5073195;28;20460;-64
2023/05/22 11:27:37;;;;;;;26.57;23.67;;;26.10;96.80;;;;;;5074625;28;20504;-64
2023/05/22 11:30:06;;;;;;;26.73;24.13;;;26.10;96.30;;;;;;5069608;28;20462;-64
2023/05/22 11:32:34;;;;;;;27.13;24.30;;;26.10;96.70;;;;;;5072564;28;20533;-64
2023/05/22 11:35:02;;;;;;;25.90;23.20;;;26.20;97.20;;;;;;5071157;28;21028;-64
2023/05/22 11:37:31;;;;;;;27.13;24.33;;;26.40;97.50;;;;;;5081804;27;20454;-64
2023/05/22 11:40:00;;;;;;;27.67;23.70;;;26.20;97.50;;;;;;5084637;27;20505;-64
2023/05/22 11:42:28;;;;;;;50.47;25.20;;;26.40;96.10;;;;;;5085755;27;20514;-64
2023/05/22 11:44:55;;;;;;;26.60;21.97;;;26.40;96.00;;;;;;5091945;27;20464;-64
2023/05/22 11:47:22;;;;;;;26.60;23.80;;;26.30;96.20;;;;;;5075070;27;20655;-65
2023/05/22 11:49:49;;;;;;;26.40;23.60;;;26.30;96.00;;;;;;5077064;27;20460;-65
2023/05/22 11:52:17;;;;;;;25.27;22.80;;;26.30;96.70;;;;;;5062085;28;20459;-64
2023/05/22 11:54:45;;;;;;;27.10;24.17;;;26.20;96.20;;;;;;5063351;27;20507;-64
2023/05/22 11:57:14;;;;;;;26.50;23.33;;;26.30;98.20;;;;;;5075822;27;20471;-64
2023/05/22 11:59:46;;;;;;;28.93;25.73;;;26.40;96.70;;;;;;5085982;27;20958;-64
2023/05/22 12:02:13;;;;;;;27.93;24.27;;;26.40;96.80;;;;;;5058677;27;20476;-64
2023/05/22 12:04:40;;;;;;;26.53;23.77;;;26.40;97.20;;;;;;5065583;28;20447;-64
2023/05/22 12:07:07;;;;;;;26.70;23.20;;;26.50;97.30;;;;;;5063669;27;20457;-64
2023/05/22 12:09:37;;;;;;;24.63;22.10;;;26.60;96.40;;;;;;5078717;27;20778;-64
2023/05/22 12:12:04;;;;;;;26.40;22.57;;;26.60;96.70;;;;;;5088130;27;20848;-65
2023/05/22 12:14:31;;;;;;;23.80;21.60;;;26.70;95.50;;;;;;5062025;27;20487;-64
2023/05/22 12:17:00;;;;;;;25.37;22.67;;;26.90;95.70;;;;;;5086751;28;20458;-64
2023/05/22 12:19:27;;;;;;;28.40;22.87;;;27.10;95.10;;;;;;5081116;27;20486;-64
2023/05/22 12:21:55;;;;;;;21.53;19.43;;;27.20;95.90;;;;;;5060212;28;20456;-64
2023/05/22 12:24:23;;;;;;;22.60;20.30;;;27.40;96.10;;;;;;5071899;28;20472;-64
2023/05/22 12:26:50;;;;;;;21.30;18.87;;;27.50;94.00;;;;;;5059697;27;20624;-64
2023/05/22 12:29:17;;;;;;;23.60;21.20;;;27.90;93.00;;;;;;5072715;27;20848;-64
2023/05/22 12:31:45;;;;;;;20.17;17.97;;;27.90;93.10;;;;;;5063241;27;20446;-64
2023/05/22 12:34:14;;;;;;;20.60;18.50;;;28.00;92.50;;;;;;5102816;27;20490;-64
2023/05/22 12:36:43;;;;;;;21.20;19.17;;;28.10;93.50;;;;;;5090855;27;20442;-64